createdAt,value
2023-04-25T00:00:08.502Z,0.00
2023-04-25T00:01:08.497Z,0.00
2023-04-25T00:02:08.533Z,0.00
2023-04-25T00:03:08.570Z,0.00
2023-04-25T00:04:08.664Z,0.00
2023-04-25T00:05:08.558Z,0.00
2023-04-25T00:06:08.443Z,0.00
2023-04-25T00:07:08.437Z,0.00
2023-04-25T00:08:08.432Z,0.00
2023-04-25T00:09:08.441Z,0.00
2023-04-25T00:10:08.404Z,0.00
2023-04-25T00:11:08.407Z,0.00
2023-04-25T00:12:08.395Z,0.00
2023-04-25T00:13:08.384Z,0.00
2023-04-25T00:14:08.377Z,0.00
2023-04-25T00:15:08.381Z,0.00
2023-04-25T00:16:08.382Z,0.00
2023-04-25T00:17:08.349Z,0.00
2023-04-25T00:18:08.367Z,0.00
2023-04-25T00:19:08.599Z,0.00
2023-04-25T00:20:08.322Z,0.00
2023-04-25T00:21:08.314Z,0.00
2023-04-25T00:22:08.312Z,0.00
2023-04-25T00:23:08.315Z,0.00
2023-04-25T00:24:08.315Z,0.00
2023-04-25T00:25:08.289Z,0.00
2023-04-25T00:26:08.278Z,0.00
2023-04-25T00:27:08.266Z,0.00
2023-04-25T00:28:08.259Z,0.00
2023-04-25T00:29:08.249Z,0.00
2023-04-25T00:30:08.240Z,0.00
2023-04-25T00:31:08.301Z,0.00
2023-04-25T00:32:08.253Z,0.00
2023-04-25T00:33:08.237Z,0.00
2023-04-25T00:34:08.202Z,0.00
2023-04-25T00:35:08.204Z,0.00
2023-04-25T00:36:08.189Z,0.00
2023-04-25T00:37:08.183Z,0.00
2023-04-25T00:38:08.177Z,0.00
2023-04-25T00:39:08.156Z,0.00
2023-04-25T00:40:08.156Z,0.00
2023-04-25T00:41:08.141Z,0.00
2023-04-25T00:42:08.136Z,0.00
2023-04-25T00:43:08.121Z,0.00
2023-04-25T00:44:08.128Z,0.00
2023-04-25T00:45:08.110Z,0.00
2023-04-25T00:46:08.093Z,0.00
2023-04-25T00:47:08.164Z,0.00
2023-04-25T00:48:08.315Z,0.00
2023-04-25T00:49:08.088Z,0.00
2023-04-25T00:50:08.068Z,0.00
2023-04-25T00:51:08.050Z,0.00
2023-04-25T00:52:08.042Z,0.00
2023-04-25T00:53:08.041Z,0.00
2023-04-25T00:54:08.065Z,0.00
2023-04-25T00:55:08.016Z,0.00
2023-04-25T00:56:08.023Z,0.00
2023-04-25T00:57:08.020Z,0.00
2023-04-25T00:58:08.004Z,0.00
2023-04-25T00:59:07.981Z,0.00
2023-04-25T01:00:07.972Z,0.00
2023-04-25T01:01:08.051Z,0.00
2023-04-25T01:02:07.974Z,0.00
2023-04-25T01:03:08.183Z,0.00
2023-04-25T01:04:08.091Z,0.00
2023-04-25T01:05:07.928Z,0.00
2023-04-25T01:06:07.918Z,0.00
2023-04-25T01:07:07.921Z,0.00
2023-04-25T01:08:07.907Z,0.00
2023-04-25T01:09:07.902Z,0.00
2023-04-25T01:10:07.883Z,0.00
2023-04-25T01:11:07.928Z,0.00
2023-04-25T01:12:07.865Z,0.00
2023-04-25T01:13:07.861Z,0.00
2023-04-25T01:14:07.847Z,0.00
2023-04-25T01:15:07.838Z,0.00
2023-04-25T01:16:07.881Z,0.00
2023-04-25T01:17:07.938Z,0.00
2023-04-25T01:18:07.852Z,0.00
2023-04-25T01:19:07.818Z,0.00
2023-04-25T01:20:07.795Z,0.00
2023-04-25T01:21:07.798Z,0.00
2023-04-25T01:22:07.775Z,0.00
2023-04-25T01:23:07.768Z,0.00
2023-04-25T01:24:07.755Z,0.00
2023-04-25T01:25:07.750Z,0.00
2023-04-25T01:26:07.752Z,0.00
2023-04-25T01:27:07.731Z,0.00
2023-04-25T01:28:07.729Z,0.00
2023-04-25T01:29:07.712Z,0.00
2023-04-25T01:30:07.724Z,0.00
2023-04-25T01:31:07.698Z,0.00
2023-04-25T01:32:07.733Z,0.00
2023-04-25T01:33:07.747Z,0.00
2023-04-25T01:34:07.673Z,0.00
2023-04-25T01:35:07.661Z,0.00
2023-04-25T01:36:07.708Z,0.00
2023-04-25T01:37:07.648Z,0.00
2023-04-25T01:38:07.635Z,0.00
2023-04-25T01:39:07.625Z,0.00
2023-04-25T01:40:07.626Z,0.00
2023-04-25T01:41:07.609Z,0.00
2023-04-25T01:42:07.655Z,0.00
2023-04-25T01:43:07.593Z,0.00
2023-04-25T01:44:07.581Z,0.00
2023-04-25T01:45:07.577Z,0.00
2023-04-25T01:46:07.595Z,0.00
2023-04-25T01:47:07.647Z,0.00
2023-04-25T01:48:07.577Z,0.00
2023-04-25T01:49:07.539Z,0.00
2023-04-25T01:50:07.531Z,0.00
2023-04-25T01:51:07.533Z,0.00
2023-04-25T01:52:07.508Z,0.00
2023-04-25T01:53:07.503Z,0.00
2023-04-25T01:54:07.492Z,0.00
2023-04-25T01:55:07.484Z,0.00
2023-04-25T01:56:07.481Z,0.00
2023-04-25T01:57:07.471Z,0.00
2023-04-25T01:58:07.455Z,0.00
2023-04-25T01:59:07.448Z,0.00
2023-04-25T02:00:07.437Z,0.00
2023-04-25T02:01:07.438Z,0.00
2023-04-25T02:02:07.419Z,0.00
2023-04-25T02:03:07.534Z,0.00
2023-04-25T02:04:07.718Z,0.00
2023-04-25T02:05:07.393Z,0.00
2023-04-25T02:06:07.393Z,0.00
2023-04-25T02:07:07.393Z,0.00
2023-04-25T02:08:07.382Z,0.00
2023-04-25T02:09:07.360Z,0.00
2023-04-25T02:10:07.359Z,0.00
2023-04-25T02:11:07.345Z,0.00
2023-04-25T02:12:07.351Z,0.00
2023-04-25T02:13:07.354Z,0.00
2023-04-25T02:14:07.338Z,0.00
2023-04-25T02:15:07.332Z,0.00
2023-04-25T02:16:07.369Z,0.00
2023-04-25T02:17:07.336Z,0.00
2023-04-25T02:18:07.414Z,0.00
2023-04-25T02:19:07.270Z,0.00
2023-04-25T02:20:07.264Z,0.00
2023-04-25T02:21:07.267Z,0.00
2023-04-25T02:22:07.244Z,0.00
2023-04-25T02:23:07.241Z,0.00
2023-04-25T02:24:07.225Z,0.00
2023-04-25T02:25:07.216Z,0.00
2023-04-25T02:26:07.212Z,0.00
2023-04-25T02:27:07.206Z,0.00
2023-04-25T02:28:07.192Z,0.00
2023-04-25T02:29:07.181Z,0.00
2023-04-25T02:30:07.171Z,0.00
2023-04-25T02:31:07.175Z,0.00
2023-04-25T02:32:07.156Z,0.00
2023-04-25T02:33:07.167Z,0.00
2023-04-25T02:34:07.134Z,0.00
2023-04-25T02:35:07.137Z,0.00
2023-04-25T02:36:07.117Z,0.00
2023-04-25T02:37:07.119Z,0.00
2023-04-25T02:38:07.099Z,0.00
2023-04-25T02:39:07.091Z,0.00
2023-04-25T02:40:07.113Z,0.00
2023-04-25T02:41:07.076Z,0.00
2023-04-25T02:42:07.119Z,0.00
2023-04-25T02:43:07.056Z,0.00
2023-04-25T02:44:07.061Z,0.00
2023-04-25T02:45:07.050Z,0.00
2023-04-25T02:46:07.057Z,0.00
2023-04-25T02:47:07.052Z,0.00
2023-04-25T02:48:07.034Z,0.00
2023-04-25T02:49:06.999Z,0.00
2023-04-25T02:50:06.993Z,0.00
2023-04-25T02:51:07.038Z,0.00
2023-04-25T02:52:07.075Z,0.00
2023-04-25T02:53:07.006Z,0.00
2023-04-25T02:54:06.961Z,0.00
2023-04-25T02:55:06.944Z,0.00
2023-04-25T02:56:06.940Z,0.00
2023-04-25T02:57:06.933Z,0.00
2023-04-25T02:58:06.916Z,0.00
2023-04-25T02:59:06.916Z,0.00
2023-04-25T03:00:06.925Z,0.00
2023-04-25T03:01:06.925Z,0.00
2023-04-25T03:02:06.884Z,0.00
2023-04-25T03:03:06.942Z,0.00
2023-04-25T03:04:06.890Z,0.00
2023-04-25T03:05:06.908Z,0.00
2023-04-25T03:06:06.845Z,0.00
2023-04-25T03:07:06.836Z,0.00
2023-04-25T03:08:06.847Z,0.00
2023-04-25T03:09:06.817Z,0.00
2023-04-25T03:10:06.807Z,0.00
2023-04-25T03:11:06.800Z,0.00
2023-04-25T03:12:06.792Z,0.00
2023-04-25T03:13:06.786Z,0.00
2023-04-25T03:14:06.778Z,0.00
2023-04-25T03:15:06.761Z,0.00
2023-04-25T03:16:06.795Z,0.00
2023-04-25T03:17:06.749Z,0.00
2023-04-25T03:18:06.833Z,0.00
2023-04-25T03:19:06.726Z,0.00
2023-04-25T03:20:06.719Z,4.00
2023-04-25T03:21:06.712Z,4.00
2023-04-25T03:22:06.711Z,4.00
2023-04-25T03:23:06.686Z,0.00
2023-04-25T03:24:06.690Z,4.00
2023-04-25T03:25:06.672Z,4.00
2023-04-25T03:26:06.664Z,4.00
2023-04-25T03:27:06.666Z,4.00
2023-04-25T03:28:06.654Z,8.00
2023-04-25T03:29:06.643Z,4.00
2023-04-25T03:30:06.634Z,8.00
2023-04-25T03:31:06.621Z,8.00
2023-04-25T03:32:06.664Z,12.00
2023-04-25T03:33:06.636Z,12.00
2023-04-25T03:34:06.597Z,16.00
2023-04-25T03:35:06.589Z,16.00
2023-04-25T03:36:06.595Z,16.00
2023-04-25T03:37:06.569Z,20.00
2023-04-25T03:38:06.560Z,24.00
2023-04-25T03:39:06.555Z,28.00
2023-04-25T03:40:06.545Z,32.00
2023-04-25T03:41:06.619Z,36.00
2023-04-25T03:42:06.517Z,36.00
2023-04-25T03:43:06.518Z,44.00
2023-04-25T03:44:06.503Z,48.00
2023-04-25T03:45:06.492Z,56.00
2023-04-25T03:46:06.522Z,56.00
2023-04-25T03:47:06.479Z,68.00
2023-04-25T03:48:06.512Z,72.00
2023-04-25T03:49:06.458Z,76.00
2023-04-25T03:50:06.453Z,88.00
2023-04-25T03:51:06.517Z,96.00
2023-04-25T03:52:06.434Z,104.00
2023-04-25T03:53:06.424Z,116.00
2023-04-25T03:54:06.420Z,128.00
2023-04-25T03:55:06.403Z,136.00
2023-04-25T03:56:06.420Z,144.00
2023-04-25T03:57:06.406Z,152.00
2023-04-25T03:58:06.386Z,164.00
2023-04-25T03:59:06.369Z,180.00
2023-04-25T04:00:06.361Z,196.00
2023-04-25T04:01:06.354Z,212.00
2023-04-25T04:02:06.396Z,224.00
2023-04-25T04:03:06.474Z,240.00
2023-04-25T04:04:06.607Z,252.00
2023-04-25T04:05:06.441Z,264.00
2023-04-25T04:06:06.299Z,276.00
2023-04-25T04:07:06.290Z,288.00
2023-04-25T04:08:06.289Z,304.00
2023-04-25T04:09:06.282Z,312.00
2023-04-25T04:10:06.275Z,324.00
2023-04-25T04:11:06.262Z,340.00
2023-04-25T04:12:06.256Z,352.00
2023-04-25T04:13:06.245Z,356.00
2023-04-25T04:14:06.230Z,368.00
2023-04-25T04:15:06.221Z,388.00
2023-04-25T04:16:06.242Z,404.00
2023-04-25T04:17:06.204Z,416.00
2023-04-25T04:18:06.211Z,420.00
2023-04-25T04:19:06.186Z,424.00
2023-04-25T04:20:06.176Z,436.00
2023-04-25T04:21:06.200Z,456.00
2023-04-25T04:22:06.178Z,476.00
2023-04-25T04:23:06.150Z,508.00
2023-04-25T04:24:06.144Z,520.00
2023-04-25T04:25:06.131Z,516.00
2023-04-25T04:26:06.132Z,516.00
2023-04-25T04:27:06.116Z,504.00
2023-04-25T04:28:06.105Z,508.00
2023-04-25T04:29:06.096Z,520.00
2023-04-25T04:30:06.093Z,548.00
2023-04-25T04:31:06.147Z,576.00
2023-04-25T04:32:06.064Z,604.00
2023-04-25T04:33:06.136Z,620.00
2023-04-25T04:34:06.052Z,632.00
2023-04-25T04:35:06.042Z,648.00
2023-04-25T04:36:06.034Z,684.00
2023-04-25T04:37:06.023Z,708.00
2023-04-25T04:38:06.013Z,716.00
2023-04-25T04:39:06.005Z,740.00
2023-04-25T04:40:06.008Z,772.00
2023-04-25T04:41:05.985Z,800.00
2023-04-25T04:42:05.982Z,852.00
2023-04-25T04:43:05.982Z,908.00
2023-04-25T04:44:07.136Z,984.00
2023-04-25T04:45:05.953Z,1044.00
2023-04-25T04:46:05.957Z,1032.00
2023-04-25T04:47:05.999Z,1016.00
2023-04-25T04:48:05.953Z,948.00
2023-04-25T04:49:05.914Z,944.00
2023-04-25T04:50:05.910Z,984.00
2023-04-25T04:51:05.897Z,1224.00
2023-04-25T04:52:05.929Z,1304.00
2023-04-25T04:53:05.881Z,1432.00
2023-04-25T04:54:05.882Z,1428.00
2023-04-25T04:55:05.860Z,1432.00
2023-04-25T04:56:05.848Z,1452.00
2023-04-25T04:57:05.858Z,1516.00
2023-04-25T04:58:05.841Z,1536.00
2023-04-25T04:59:05.820Z,1532.00
2023-04-25T05:00:05.816Z,1544.00
2023-04-25T05:01:05.835Z,1568.00
2023-04-25T05:02:05.793Z,1604.00
2023-04-25T05:03:05.911Z,1352.00
2023-04-25T05:04:05.915Z,1240.00
2023-04-25T05:05:05.766Z,1492.00
2023-04-25T05:06:05.757Z,1668.00
2023-04-25T05:07:05.774Z,1764.00
2023-04-25T05:08:05.743Z,1884.00
2023-04-25T05:09:05.734Z,1580.00
2023-04-25T05:10:05.720Z,1336.00
2023-04-25T05:11:05.714Z,1260.00
2023-04-25T05:12:05.715Z,1192.00
2023-04-25T05:13:05.697Z,1096.00
2023-04-25T05:14:05.687Z,1216.00
2023-04-25T05:15:05.688Z,1368.00
2023-04-25T05:16:05.697Z,1328.00
2023-04-25T05:17:05.688Z,1280.00
2023-04-25T05:18:05.681Z,1320.00
2023-04-25T05:19:05.652Z,1352.00
2023-04-25T05:20:05.630Z,1412.00
2023-04-25T05:21:05.630Z,1728.00
2023-04-25T05:22:05.614Z,1836.00
2023-04-25T05:23:05.608Z,1732.00
2023-04-25T05:24:05.596Z,1592.00
2023-04-25T05:25:05.663Z,1748.00
2023-04-25T05:26:05.574Z,1724.00
2023-04-25T05:27:05.581Z,1752.00
2023-04-25T05:28:05.571Z,1864.00
2023-04-25T05:29:05.552Z,1600.00
2023-04-25T05:30:05.540Z,1404.00
2023-04-25T05:31:05.540Z,1492.00
2023-04-25T05:32:05.609Z,1336.00
2023-04-25T05:33:05.585Z,1332.00
2023-04-25T05:34:05.511Z,1568.00
2023-04-25T05:35:05.536Z,1352.00
2023-04-25T05:36:05.516Z,1388.00
2023-04-25T05:37:05.485Z,1356.00
2023-04-25T05:38:05.487Z,1280.00
2023-04-25T05:39:05.457Z,1308.00
2023-04-25T05:40:05.521Z,1304.00
2023-04-25T05:41:05.441Z,1296.00
2023-04-25T05:42:05.431Z,1488.00
2023-04-25T05:43:05.424Z,1532.00
2023-04-25T05:44:05.414Z,1480.00
2023-04-25T05:45:05.409Z,1396.00
2023-04-25T05:46:05.425Z,1564.00
2023-04-25T05:47:05.395Z,1624.00
2023-04-25T05:48:05.446Z,1736.00
2023-04-25T05:49:05.370Z,1960.00
2023-04-25T05:50:05.362Z,1808.00
2023-04-25T05:51:05.353Z,1652.00
2023-04-25T05:52:05.336Z,1556.00
2023-04-25T05:53:05.334Z,1836.00
2023-04-25T05:54:05.320Z,1916.00
2023-04-25T05:55:05.322Z,1888.00
2023-04-25T05:56:05.306Z,2248.00
2023-04-25T05:57:05.297Z,2476.00
2023-04-25T05:58:05.288Z,2532.00
2023-04-25T05:59:05.276Z,2544.00
2023-04-25T06:00:05.272Z,2456.00
2023-04-25T06:01:05.261Z,2260.00
2023-04-25T06:02:05.269Z,2508.00
2023-04-25T06:03:05.327Z,2592.00
2023-04-25T06:04:05.568Z,3060.00
2023-04-25T06:05:05.312Z,3228.00
2023-04-25T06:06:05.240Z,2952.00
2023-04-25T06:07:05.205Z,2992.00
2023-04-25T06:08:05.203Z,2504.00
2023-04-25T06:09:05.190Z,2788.00
2023-04-25T06:10:05.186Z,3092.00
2023-04-25T06:11:05.182Z,2560.00
2023-04-25T06:12:05.166Z,1976.00
2023-04-25T06:13:05.183Z,1884.00
2023-04-25T06:14:05.152Z,1764.00
2023-04-25T06:15:13.217Z,1524.00
2023-04-25T06:16:05.169Z,1252.00
2023-04-25T06:17:05.117Z,1188.00
2023-04-25T06:18:05.160Z,1200.00
2023-04-25T06:19:05.105Z,1204.00
2023-04-25T06:20:06.922Z,1232.00
2023-04-25T06:21:05.079Z,1240.00
2023-04-25T06:22:05.075Z,1256.00
2023-04-25T06:23:05.072Z,1176.00
2023-04-25T06:24:05.077Z,1080.00
2023-04-25T06:25:05.073Z,1152.00
2023-04-25T06:26:05.065Z,1232.00
2023-04-25T06:27:05.107Z,1496.00
2023-04-25T06:28:05.074Z,1680.00
2023-04-25T06:29:05.080Z,1532.00
2023-04-25T06:30:05.001Z,1496.00
2023-04-25T06:31:05.031Z,1336.00
2023-04-25T06:32:04.985Z,1176.00
2023-04-25T06:33:05.005Z,1392.00
2023-04-25T06:34:05.007Z,1408.00
2023-04-25T06:35:04.966Z,1408.00
2023-04-25T06:36:04.958Z,1544.00
2023-04-25T06:37:04.946Z,1628.00
2023-04-25T06:38:04.934Z,1484.00
2023-04-25T06:39:04.925Z,1532.00
2023-04-25T06:40:04.961Z,1472.00
2023-04-25T06:41:04.910Z,1676.00
2023-04-25T06:42:04.900Z,1536.00
2023-04-25T06:43:04.887Z,1776.00
2023-04-25T06:44:04.880Z,1856.00
2023-04-25T06:45:04.928Z,1784.00
2023-04-25T06:46:04.863Z,1796.00
2023-04-25T06:47:04.866Z,1824.00
2023-04-25T06:48:04.899Z,1652.00
2023-04-25T06:49:04.844Z,1444.00
2023-04-25T06:50:04.828Z,1544.00
2023-04-25T06:51:04.825Z,1548.00
2023-04-25T06:52:04.812Z,1472.00
2023-04-25T06:53:04.801Z,1560.00
2023-04-25T06:54:04.794Z,1564.00
2023-04-25T06:55:04.784Z,1620.00
2023-04-25T06:56:04.777Z,1616.00
2023-04-25T06:57:04.765Z,1704.00
2023-04-25T06:58:04.761Z,1448.00
2023-04-25T06:59:04.776Z,1288.00
2023-04-25T07:00:04.739Z,1208.00
2023-04-25T07:01:04.779Z,1168.00
2023-04-25T07:02:04.733Z,1328.00
2023-04-25T07:03:04.802Z,1172.00
2023-04-25T07:04:04.840Z,1092.00
2023-04-25T07:05:04.693Z,1084.00
2023-04-25T07:06:04.686Z,1340.00
2023-04-25T07:07:04.680Z,1396.00
2023-04-25T07:08:04.668Z,1588.00
2023-04-25T07:09:04.660Z,1812.00
2023-04-25T07:10:04.650Z,2112.00
2023-04-25T07:11:04.650Z,1720.00
2023-04-25T07:12:04.647Z,1964.00
2023-04-25T07:13:04.624Z,2172.00
2023-04-25T07:14:04.621Z,2536.00
2023-04-25T07:15:04.607Z,2288.00
2023-04-25T07:16:04.614Z,2636.00
2023-04-25T07:17:04.591Z,2540.00
2023-04-25T07:18:04.641Z,2552.00
2023-04-25T07:19:04.569Z,2948.00
2023-04-25T07:20:04.566Z,3904.00
2023-04-25T07:21:04.564Z,4164.00
2023-04-25T07:22:04.544Z,4180.00
2023-04-25T07:23:04.539Z,4680.00
2023-04-25T07:24:04.526Z,3900.00
2023-04-25T07:25:04.520Z,2596.00
2023-04-25T07:26:04.514Z,3104.00
2023-04-25T07:27:04.500Z,2792.00
2023-04-25T07:28:04.498Z,2928.00
2023-04-25T07:29:04.487Z,2140.00
2023-04-25T07:30:04.475Z,1608.00
2023-04-25T07:31:04.473Z,1652.00
2023-04-25T07:32:04.500Z,1956.00
2023-04-25T07:33:04.500Z,1712.00
2023-04-25T07:34:04.442Z,1828.00
2023-04-25T07:35:04.638Z,2448.00
2023-04-25T07:36:04.422Z,3496.00
2023-04-25T07:37:04.432Z,3968.00
2023-04-25T07:38:04.401Z,3676.00
2023-04-25T07:39:04.391Z,3748.00
2023-04-25T07:40:04.414Z,3948.00
2023-04-25T07:41:04.380Z,4356.00
2023-04-25T07:42:04.386Z,4872.00
2023-04-25T07:43:04.354Z,5324.00
2023-04-25T07:44:04.349Z,5968.00
2023-04-25T07:45:04.348Z,6032.00
2023-04-25T07:46:04.357Z,6428.00
2023-04-25T07:47:04.625Z,7180.00
2023-04-25T07:48:04.332Z,7552.00
2023-04-25T07:49:04.304Z,7368.00
2023-04-25T07:50:04.293Z,7420.00
2023-04-25T07:51:04.284Z,7800.00
2023-04-25T07:52:04.289Z,7452.00
2023-04-25T07:53:04.279Z,7888.00
2023-04-25T07:54:04.274Z,8624.00
2023-04-25T07:55:04.251Z,8916.00
2023-04-25T07:56:04.242Z,9996.00
2023-04-25T07:57:04.227Z,11256.00
2023-04-25T07:58:04.227Z,12096.00
2023-04-25T07:59:04.218Z,9816.00
2023-04-25T08:00:04.209Z,10856.00
2023-04-25T08:01:04.204Z,11172.00
2023-04-25T08:02:04.203Z,9740.00
2023-04-25T08:03:04.332Z,7716.00
2023-04-25T08:04:04.320Z,7260.00
2023-04-25T08:05:04.272Z,6976.00
2023-04-25T08:06:07.019Z,6456.00
2023-04-25T08:07:04.147Z,6364.00
2023-04-25T08:08:04.139Z,5040.00
2023-04-25T08:09:04.130Z,5920.00
2023-04-25T08:10:04.122Z,6176.00
2023-04-25T08:11:04.119Z,6144.00
2023-04-25T08:12:04.114Z,6824.00
2023-04-25T08:13:04.111Z,8016.00
2023-04-25T08:14:04.114Z,9584.00
2023-04-25T08:15:04.086Z,9572.00
2023-04-25T08:16:04.118Z,8608.00
2023-04-25T08:17:04.068Z,8320.00
2023-04-25T08:18:04.088Z,8336.00
2023-04-25T08:19:04.050Z,8300.00
2023-04-25T08:20:04.079Z,8504.00
2023-04-25T08:21:04.033Z,8440.00
2023-04-25T08:22:04.034Z,6320.00
2023-04-25T08:23:04.019Z,7220.00
2023-04-25T08:24:04.017Z,6668.00
2023-04-25T08:25:04.037Z,6632.00
2023-04-25T08:26:03.991Z,7296.00
2023-04-25T08:27:03.979Z,8004.00
2023-04-25T08:28:03.987Z,9048.00
2023-04-25T08:29:03.968Z,9720.00
2023-04-25T08:30:03.959Z,10364.00
2023-04-25T08:31:03.971Z,10556.00
2023-04-25T08:32:03.983Z,9672.00
2023-04-25T08:33:03.973Z,9500.00
2023-04-25T08:34:03.927Z,10412.00
2023-04-25T08:35:03.934Z,11752.00
2023-04-25T08:36:03.914Z,13184.00
2023-04-25T08:37:03.955Z,13832.00
2023-04-25T08:38:03.957Z,14068.00
2023-04-25T08:39:03.888Z,13996.00
2023-04-25T08:40:03.879Z,14500.00
2023-04-25T08:41:03.882Z,14440.00
2023-04-25T08:42:03.864Z,14504.00
2023-04-25T08:43:03.857Z,14620.00
2023-04-25T08:44:03.857Z,14568.00
2023-04-25T08:45:06.625Z,14300.00
2023-04-25T08:46:03.830Z,13864.00
2023-04-25T08:47:03.926Z,13844.00
2023-04-25T08:48:03.899Z,13024.00
2023-04-25T08:49:03.805Z,12396.00
2023-04-25T08:50:03.795Z,12424.00
2023-04-25T08:51:03.789Z,12720.00
2023-04-25T08:52:03.784Z,12876.00
2023-04-25T08:53:03.944Z,13160.00
2023-04-25T08:54:09.025Z,13532.00
2023-04-25T08:55:03.773Z,13916.00
2023-04-25T08:56:03.748Z,13748.00
2023-04-25T08:57:03.749Z,12876.00
2023-04-25T08:58:03.728Z,11164.00
2023-04-25T08:59:03.730Z,10052.00
2023-04-25T09:00:03.724Z,10004.00
2023-04-25T09:01:03.739Z,9704.00
2023-04-25T09:02:03.915Z,8936.00
2023-04-25T09:03:03.823Z,9076.00
2023-04-25T09:04:03.812Z,9480.00
2023-04-25T09:05:03.688Z,9428.00
2023-04-25T09:06:03.670Z,8880.00
2023-04-25T09:07:03.689Z,9220.00
2023-04-25T09:08:03.674Z,10412.00
2023-04-25T09:09:03.646Z,9408.00
2023-04-25T09:10:03.637Z,9752.00
2023-04-25T09:11:03.628Z,10020.00
2023-04-25T09:12:03.621Z,10004.00
2023-04-25T09:13:03.613Z,11220.00
2023-04-25T09:14:03.603Z,10404.00
2023-04-25T09:15:03.600Z,8420.00
2023-04-25T09:16:03.648Z,7496.00
2023-04-25T09:17:03.787Z,7352.00
2023-04-25T09:18:03.665Z,10180.00
2023-04-25T09:19:03.571Z,10976.00
2023-04-25T09:20:03.558Z,9008.00
2023-04-25T09:21:09.814Z,9020.00
2023-04-25T09:22:03.541Z,10948.00
2023-04-25T09:23:03.536Z,11356.00
2023-04-25T09:24:03.535Z,10984.00
2023-04-25T09:25:03.520Z,9996.00
2023-04-25T09:26:03.520Z,10572.00
2023-04-25T09:27:03.505Z,11400.00
2023-04-25T09:28:03.500Z,10120.00
2023-04-25T09:29:03.504Z,10004.00
2023-04-25T09:30:03.481Z,10696.00
2023-04-25T09:31:03.480Z,11492.00
2023-04-25T09:32:03.529Z,11048.00
2023-04-25T09:33:03.495Z,11812.00
2023-04-25T09:34:03.650Z,12384.00
2023-04-25T09:35:03.444Z,12108.00
2023-04-25T09:36:03.436Z,9140.00
2023-04-25T09:37:03.435Z,7988.00
2023-04-25T09:38:03.469Z,7212.00
2023-04-25T09:39:03.430Z,7576.00
2023-04-25T09:40:03.427Z,8748.00
2023-04-25T09:41:03.403Z,10448.00
2023-04-25T09:42:03.396Z,10712.00
2023-04-25T09:43:03.388Z,10308.00
2023-04-25T09:44:03.961Z,10228.00
2023-04-25T09:45:03.397Z,9596.00
2023-04-25T09:46:03.373Z,10248.00
2023-04-25T09:47:03.355Z,11568.00
2023-04-25T09:48:03.424Z,12304.00
2023-04-25T09:49:03.341Z,11528.00
2023-04-25T09:50:03.333Z,11656.00
2023-04-25T09:51:03.331Z,11340.00
2023-04-25T09:52:03.984Z,10756.00
2023-04-25T09:53:03.315Z,10604.00
2023-04-25T09:54:03.314Z,9300.00
2023-04-25T09:55:03.314Z,8060.00
2023-04-25T09:56:03.291Z,9744.00
2023-04-25T09:57:03.285Z,9532.00
2023-04-25T09:58:03.293Z,7396.00
2023-04-25T09:59:03.276Z,6460.00
2023-04-25T10:00:03.268Z,6320.00
2023-04-25T10:01:03.365Z,6480.00
2023-04-25T10:02:03.257Z,6808.00
2023-04-25T10:03:03.334Z,7892.00
2023-04-25T10:04:03.830Z,9824.00
2023-04-25T10:05:03.275Z,10488.00
2023-04-25T10:06:03.233Z,9820.00
2023-04-25T10:07:03.210Z,9780.00
2023-04-25T10:08:03.206Z,9880.00
2023-04-25T10:09:03.200Z,9292.00
2023-04-25T10:10:03.202Z,7780.00
2023-04-25T10:11:03.211Z,6964.00
2023-04-25T10:12:03.175Z,8332.00
2023-04-25T10:13:03.171Z,8924.00
2023-04-25T10:14:03.183Z,7920.00
2023-04-25T10:15:03.157Z,7308.00
2023-04-25T10:16:03.189Z,7640.00
2023-04-25T10:17:03.151Z,7620.00
2023-04-25T10:18:03.168Z,8512.00
2023-04-25T10:19:03.130Z,8556.00
2023-04-25T10:20:03.124Z,9684.00
2023-04-25T10:21:03.128Z,10568.00
2023-04-25T10:22:03.111Z,10924.00
2023-04-25T10:23:03.100Z,9924.00
2023-04-25T10:24:03.093Z,10336.00
2023-04-25T10:25:03.082Z,10920.00
2023-04-25T10:26:03.080Z,10864.00
2023-04-25T10:27:03.169Z,10512.00
2023-04-25T10:28:03.087Z,9844.00
2023-04-25T10:29:03.085Z,9604.00
2023-04-25T10:30:03.067Z,10344.00
2023-04-25T10:31:03.070Z,10440.00
2023-04-25T10:32:03.088Z,10400.00
2023-04-25T10:33:03.045Z,9696.00
2023-04-25T10:34:03.049Z,9628.00
2023-04-25T10:35:03.014Z,9632.00
2023-04-25T10:36:03.007Z,9708.00
2023-04-25T10:37:03.002Z,9052.00
2023-04-25T10:38:02.994Z,8864.00
2023-04-25T10:39:02.997Z,9616.00
2023-04-25T10:40:02.984Z,9812.00
2023-04-25T10:41:02.972Z,10136.00
2023-04-25T10:42:02.966Z,10052.00
2023-04-25T10:43:02.953Z,10412.00
2023-04-25T10:44:02.958Z,10472.00
2023-04-25T10:45:02.988Z,10576.00
2023-04-25T10:46:02.955Z,9720.00
2023-04-25T10:47:03.045Z,9752.00
2023-04-25T10:48:03.022Z,9516.00
2023-04-25T10:49:02.922Z,9348.00
2023-04-25T10:50:02.904Z,9544.00
2023-04-25T10:51:02.903Z,9528.00
2023-04-25T10:52:02.899Z,8996.00
2023-04-25T10:53:02.896Z,9640.00
2023-04-25T10:54:02.885Z,7984.00
2023-04-25T10:55:02.873Z,6396.00
2023-04-25T10:56:02.867Z,5548.00
2023-04-25T10:57:02.864Z,5044.00
2023-04-25T10:58:02.874Z,4412.00
2023-04-25T10:59:02.853Z,3696.00
2023-04-25T11:00:02.845Z,3352.00
2023-04-25T11:01:02.934Z,3248.00
2023-04-25T11:02:02.873Z,3216.00
2023-04-25T11:03:02.925Z,3604.00
2023-04-25T11:04:03.032Z,4372.00
2023-04-25T11:05:02.811Z,4456.00
2023-04-25T11:06:02.795Z,4152.00
2023-04-25T11:07:06.378Z,4280.00
2023-04-25T11:08:07.605Z,4512.00
2023-04-25T11:09:02.783Z,4416.00
2023-04-25T11:10:02.776Z,4640.00
2023-04-25T11:11:02.759Z,5188.00
2023-04-25T11:12:02.763Z,5772.00
2023-04-25T11:13:02.762Z,5748.00
2023-04-25T11:14:02.739Z,6408.00
2023-04-25T11:15:02.727Z,7520.00
2023-04-25T11:16:12.191Z,8008.00
2023-04-25T11:17:02.760Z,7996.00
2023-04-25T11:18:02.772Z,7604.00
2023-04-25T11:19:02.696Z,7700.00
2023-04-25T11:20:02.689Z,8660.00
2023-04-25T11:21:02.682Z,9312.00
2023-04-25T11:22:02.672Z,10028.00
2023-04-25T11:24:02.657Z,10092.00
2023-04-25T11:25:02.660Z,10324.00
2023-04-25T11:26:02.645Z,10428.00
2023-04-25T11:27:02.643Z,10468.00
2023-04-25T11:28:02.625Z,10480.00
2023-04-25T11:29:02.620Z,10316.00
2023-04-25T11:30:02.612Z,10604.00
2023-04-25T11:31:02.605Z,10632.00
2023-04-25T11:32:02.724Z,10704.00
2023-04-25T11:33:02.648Z,10676.00
2023-04-25T11:34:02.652Z,10552.00
2023-04-25T11:35:02.611Z,10440.00
2023-04-25T11:36:02.572Z,10424.00
2023-04-25T11:37:02.574Z,10144.00
2023-04-25T11:38:02.547Z,10300.00
2023-04-25T11:39:02.551Z,10276.00
2023-04-25T11:40:02.541Z,10420.00
2023-04-25T11:41:02.748Z,10508.00
2023-04-25T11:42:14.017Z,10504.00
2023-04-25T11:43:02.520Z,10592.00
2023-04-25T11:44:02.508Z,10608.00
2023-04-25T11:45:02.502Z,10576.00
2023-04-25T11:46:02.568Z,10628.00
2023-04-25T11:47:02.479Z,10428.00
2023-04-25T11:48:02.588Z,10320.00
2023-04-25T11:49:02.475Z,10108.00
2023-04-25T11:50:02.498Z,10184.00
2023-04-25T11:51:02.462Z,10316.00
2023-04-25T11:52:02.454Z,10080.00
2023-04-25T11:53:02.444Z,9612.00
2023-04-25T11:54:02.433Z,9324.00
2023-04-25T11:55:02.426Z,9628.00
2023-04-25T11:56:02.422Z,10172.00
2023-04-25T11:57:02.409Z,10444.00
2023-04-25T11:58:02.401Z,10232.00
2023-04-25T11:59:02.441Z,10036.00
2023-04-25T12:00:02.385Z,10084.00
2023-04-25T12:01:02.381Z,10308.00
2023-04-25T12:02:02.370Z,10172.00
2023-04-25T12:03:02.459Z,9620.00
2023-04-25T12:04:02.584Z,9212.00
2023-04-25T12:05:12.066Z,8852.00
2023-04-25T12:06:02.621Z,8504.00
2023-04-25T12:07:02.358Z,8224.00
2023-04-25T12:08:02.324Z,8192.00
2023-04-25T12:09:02.336Z,8308.00
2023-04-25T12:10:02.432Z,8676.00
2023-04-25T12:11:02.303Z,9140.00
2023-04-25T12:12:02.310Z,9604.00
2023-04-25T12:13:02.312Z,10028.00
2023-04-25T12:14:02.291Z,10452.00
2023-04-25T12:15:02.292Z,10604.00
2023-04-25T12:16:02.301Z,10164.00
2023-04-25T12:17:02.256Z,9204.00
2023-04-25T12:18:02.276Z,8888.00
2023-04-25T12:19:02.240Z,8964.00
2023-04-25T12:20:02.230Z,8172.00
2023-04-25T12:21:02.242Z,7764.00
2023-04-25T12:22:02.215Z,7592.00
2023-04-25T12:23:02.208Z,7332.00
2023-04-25T12:24:02.213Z,7188.00
2023-04-25T12:25:02.197Z,7616.00